Terminal Aerodrome Forecast
Issued by NWS

Home | Current Version | Previous Version | Text Only | Print | Product List | Glossary On
Versions: 1 2 3 4 5 6 7 8 9 10 11 12 13 14
392
FTAK31 PAJN 231129 CCA
TAFAGY
TAF COR
PAGY 231129Z 2312/2412 VRB06KT P6SM VCSH FEW025 OVC040
      TEMPO 2312/2316 20008G20KT -SHRA FEW004 BKN025 OVC040
     FM231800 21008KT P6SM SCT015 OVC035
     FM232100 20015KT P6SM BKN035 BKN050
     FM240000 20015G25KT P6SM BKN050
     FM240600 21008KT P6SM SCT050 BKN100
      AMD LTD TO CLD VIS AND WIND=

USA.gov is the U.S. government's official web portal to all federal, state and local government web resources and services.